createdAt,value
2022-08-27T00:02:08.628Z,100305.41
2022-08-27T00:04:37.449Z,100305.91
2022-08-27T00:07:07.023Z,100301.38
2022-08-27T00:09:35.648Z,100300.34
2022-08-27T00:12:05.187Z,100300.69
2022-08-27T00:14:33.244Z,100304.41
2022-08-27T00:17:01.320Z,100311.13
2022-08-27T00:19:30.816Z,100308.44
2022-08-27T00:21:58.789Z,100296.34
2022-08-27T00:24:26.668Z,100304.22
2022-08-27T00:26:54.766Z,100308.78
2022-08-27T00:29:22.584Z,100308.09
2022-08-27T00:31:53.396Z,100311.13
2022-08-27T00:34:23.142Z,100305.69
2022-08-27T00:36:51.708Z,100298.47
2022-08-27T00:39:20.596Z,100300.53
2022-08-27T00:41:48.642Z,100296.63
2022-08-27T00:44:17.327Z,100321.88
2022-08-27T00:46:50.162Z,100299.88
2022-08-27T00:49:26.960Z,100300.00
2022-08-27T00:52:01.748Z,100304.69
2022-08-27T00:54:30.447Z,100305.38
2022-08-27T00:56:59.518Z,100309.41
2022-08-27T00:59:33.036Z,100301.16
2022-08-27T01:02:19.566Z,100306.03
2022-08-27T01:05:09.574Z,100307.38
2022-08-27T01:07:43.493Z,100306.72
2022-08-27T01:10:17.028Z,100301.72
2022-08-27T01:12:45.092Z,100298.47
2022-08-27T01:15:23.468Z,100309.41
2022-08-27T01:17:54.351Z,100297.09
2022-08-27T01:20:30.117Z,100306.38
2022-08-27T01:23:16.298Z,100302.50
2022-08-27T01:25:45.967Z,100308.72
2022-08-27T01:28:14.539Z,100307.72
2022-08-27T01:30:42.835Z,100304.34
2022-08-27T01:33:14.922Z,100314.09
2022-08-27T01:35:48.616Z,100303.97
2022-08-27T01:38:19.352Z,100301.47
2022-08-27T01:41:00.326Z,100300.78
2022-08-27T01:43:30.284Z,100301.44
2022-08-27T01:45:58.626Z,100312.88
2022-08-27T01:48:26.391Z,100302.94
2022-08-27T01:50:54.175Z,100306.63
2022-08-27T01:53:24.740Z,100311.81
2022-08-27T01:55:53.966Z,100305.59
2022-08-27T01:58:25.288Z,100304.22
2022-08-27T02:00:56.980Z,100309.56
2022-08-27T02:03:25.175Z,100306.72
2022-08-27T02:05:53.816Z,100303.84
2022-08-27T02:08:22.279Z,100309.22
2022-08-27T02:10:50.992Z,100288.34
2022-08-27T02:13:19.239Z,100296.97
2022-08-27T02:15:46.975Z,100306.72
2022-08-27T02:18:15.215Z,100307.53
2022-08-27T02:20:46.280Z,100312.25
2022-08-27T02:23:16.256Z,100311.91
2022-08-27T02:25:44.935Z,100312.91
2022-08-27T02:28:12.900Z,100314.94
2022-08-27T02:30:41.127Z,100305.03
2022-08-27T02:33:10.169Z,100314.59
2022-08-27T02:35:44.004Z,100315.25
2022-08-27T02:38:13.424Z,100318.44
2022-08-27T02:40:41.314Z,100314.50
2022-08-27T02:43:09.777Z,100315.88
2022-08-27T02:45:43.517Z,100321.25
2022-08-27T02:48:11.843Z,100333.16
2022-08-27T02:50:39.503Z,100324.59
2022-08-27T02:53:07.693Z,100328.75
2022-08-27T02:55:36.515Z,100332.75
2022-08-27T02:58:05.424Z,100335.97
2022-08-27T03:00:34.400Z,100321.53
2022-08-27T03:03:03.261Z,100328.75
2022-08-27T03:05:30.988Z,100329.91
2022-08-27T03:07:59.961Z,100324.22
2022-08-27T03:10:27.663Z,100340.03
2022-08-27T03:12:55.616Z,100331.91
2022-08-27T03:15:23.872Z,100330.56
2022-08-27T03:18:10.370Z,100325.81
2022-08-27T03:20:41.559Z,100334.56
2022-08-27T03:23:10.352Z,100329.56
2022-08-27T03:25:38.893Z,100337.28
2022-08-27T03:28:20.617Z,100339.59
2022-08-27T03:31:00.593Z,100337.94
2022-08-27T03:33:34.649Z,100341.44
2022-08-27T03:36:02.577Z,100337.94
2022-08-27T03:38:30.292Z,100335.25
2022-08-27T03:40:58.004Z,100341.19
2022-08-27T03:43:26.110Z,100340.16
2022-08-27T03:46:00.862Z,100333.47
2022-08-27T03:48:32.276Z,100340.19
2022-08-27T03:51:05.660Z,100346.91
2022-08-27T03:53:34.047Z,100347.06
2022-08-27T03:56:01.887Z,100342.88
2022-08-27T03:58:29.828Z,100336.66
2022-08-27T04:00:57.480Z,100336.16
2022-08-27T04:03:25.458Z,100338.66
2022-08-27T04:05:54.904Z,100340.34
2022-08-27T04:08:23.542Z,100334.44
2022-08-27T04:10:51.987Z,100339.19
2022-08-27T04:13:20.070Z,100332.13
2022-08-27T04:15:50.555Z,100337.50
2022-08-27T04:18:18.959Z,100339.19
2022-08-27T04:20:48.200Z,100342.88
2022-08-27T04:23:17.092Z,100335.78
2022-08-27T04:25:45.627Z,100335.66
2022-08-27T04:28:15.368Z,100341.69
2022-08-27T04:30:44.606Z,100342.03
2022-08-27T04:33:13.963Z,100345.38
2022-08-27T04:35:42.325Z,100340.03
2022-08-27T04:38:10.185Z,100341.41
2022-08-27T04:40:57.511Z,100343.75
2022-08-27T04:43:28.308Z,100335.66
2022-08-27T04:45:56.741Z,100342.56
2022-08-27T04:48:25.887Z,100343.72
2022-08-27T04:50:53.675Z,100338.34
2022-08-27T04:53:22.110Z,100340.81
2022-08-27T04:55:54.989Z,100347.53
2022-08-27T04:58:24.628Z,100345.06
2022-08-27T05:00:55.812Z,100341.69
2022-08-27T05:03:24.746Z,100341.06
2022-08-27T05:05:58.787Z,100342.78
2022-08-27T05:08:26.592Z,100344.16
2022-08-27T05:10:54.226Z,100344.19
2022-08-27T05:13:24.293Z,100339.38
2022-08-27T05:16:00.451Z,100341.22
2022-08-27T05:18:28.471Z,100337.22
2022-08-27T05:20:57.391Z,100339.22
2022-08-27T05:23:25.861Z,100330.38
2022-08-27T05:25:54.484Z,100336.91
2022-08-27T05:28:28.049Z,100334.22
2022-08-27T05:31:04.630Z,100342.00
2022-08-27T05:33:33.152Z,100334.47
2022-08-27T05:36:01.120Z,100330.94
2022-08-27T05:38:30.759Z,100325.78
2022-08-27T05:41:06.047Z,100326.97
2022-08-27T05:43:34.196Z,100327.63
2022-08-27T05:46:05.997Z,100323.94
2022-08-27T05:48:36.192Z,100321.72
2022-08-27T05:51:13.189Z,100317.03
2022-08-27T05:53:41.704Z,100311.09
2022-08-27T05:56:15.361Z,100311.13
2022-08-27T05:59:02.008Z,100308.38
2022-08-27T06:01:35.170Z,100314.06
2022-08-27T06:04:04.576Z,100317.41
2022-08-27T06:06:38.871Z,100315.00
2022-08-27T06:09:07.948Z,100320.03
2022-08-27T06:11:37.379Z,100324.06
2022-08-27T06:14:05.927Z,100317.66
2022-08-27T06:16:33.742Z,100311.19
2022-08-27T06:19:01.771Z,100317.13
2022-08-27T06:21:29.587Z,100308.47
2022-08-27T06:23:57.613Z,100312.16
2022-08-27T06:26:27.029Z,100307.06
2022-08-27T06:28:55.759Z,100316.84
2022-08-27T06:31:26.429Z,100308.03
2022-08-27T06:34:02.846Z,100310.34
2022-08-27T06:36:38.961Z,100311.81
2022-08-27T06:39:08.167Z,100308.94
2022-08-27T06:41:37.451Z,100308.72
2022-08-27T06:44:13.293Z,100307.75
2022-08-27T06:46:42.015Z,100302.94
2022-08-27T06:49:11.674Z,100303.00
2022-08-27T06:51:43.548Z,100303.97
2022-08-27T06:54:14.671Z,100305.56
2022-08-27T06:56:44.685Z,100303.44
2022-08-27T06:59:15.935Z,100299.22
2022-08-27T07:01:47.081Z,100301.97
2022-08-27T07:04:20.528Z,100294.44
2022-08-27T07:06:49.163Z,100301.69
2022-08-27T07:09:17.699Z,100300.56
2022-08-27T07:11:45.388Z,100298.59
2022-08-27T07:14:13.386Z,100299.88
2022-08-27T07:16:41.491Z,100289.53
2022-08-27T07:19:09.692Z,100288.50
2022-08-27T07:21:40.066Z,100283.09
2022-08-27T07:24:09.432Z,100282.81
2022-08-27T07:26:39.156Z,100274.25
2022-08-27T07:29:09.110Z,100275.53
2022-08-27T07:31:37.516Z,100275.25
2022-08-27T07:34:06.574Z,100276.16
2022-08-27T07:36:36.931Z,100270.44
2022-08-27T07:39:06.036Z,100264.94
2022-08-27T07:41:57.836Z,100258.09
2022-08-27T07:44:28.059Z,100261.97
2022-08-27T07:46:59.220Z,100246.66
2022-08-27T07:49:28.847Z,100264.72
2022-08-27T07:51:56.678Z,100250.38
2022-08-27T07:54:25.347Z,100253.94
2022-08-27T07:56:55.191Z,100249.47
2022-08-27T07:59:27.551Z,100250.84
2022-08-27T08:01:56.668Z,100246.28
2022-08-27T08:04:25.051Z,100241.53
2022-08-27T08:06:53.790Z,100243.66
2022-08-27T08:09:23.950Z,100238.91
2022-08-27T08:11:52.923Z,100239.78
2022-08-27T08:14:21.344Z,100244.84
2022-08-27T08:16:49.664Z,100245.91
2022-08-27T08:19:17.912Z,100243.03
2022-08-27T08:21:45.743Z,100243.09
2022-08-27T08:24:13.352Z,100243.75
2022-08-27T08:26:42.211Z,100234.34
2022-08-27T08:29:13.349Z,100241.50
2022-08-27T08:31:46.923Z,100247.41
2022-08-27T08:34:20.009Z,100239.41
2022-08-27T08:36:53.933Z,100237.94
2022-08-27T08:39:23.727Z,100239.63
2022-08-27T08:41:57.532Z,100237.16
2022-08-27T08:44:48.939Z,100236.78
2022-08-27T08:47:24.867Z,100245.56
2022-08-27T08:50:29.123Z,100241.19
2022-08-27T08:53:06.383Z,100235.13
2022-08-27T08:55:48.890Z,100239.94
2022-08-27T08:58:38.576Z,100238.91
2022-08-27T09:01:09.805Z,100244.56
2022-08-27T09:03:42.655Z,100239.53
2022-08-27T09:06:10.820Z,100231.56
2022-08-27T09:08:42.219Z,100231.97
2022-08-27T09:11:36.033Z,100230.28
2022-08-27T09:14:34.072Z,100240.34
2022-08-27T09:17:03.677Z,100234.63
2022-08-27T09:19:39.145Z,100240.03
2022-08-27T09:22:22.148Z,100240.03
2022-08-27T09:24:55.754Z,100238.13
2022-08-27T09:27:25.424Z,100236.69
2022-08-27T09:29:55.868Z,100238.31
2022-08-27T09:32:27.268Z,100237.84
2022-08-27T09:34:59.811Z,100240.16
2022-08-27T09:37:34.596Z,100237.84
2022-08-27T09:40:13.359Z,100240.50
2022-08-27T09:42:50.876Z,100235.63
2022-08-27T09:45:25.996Z,100237.72
2022-08-27T09:48:02.877Z,100241.16
2022-08-27T09:50:43.522Z,100242.91
2022-08-27T09:53:27.368Z,100237.06
2022-08-27T09:55:59.533Z,100250.47
2022-08-27T09:58:32.098Z,100261.47
2022-08-27T10:01:17.407Z,100265.47
2022-08-27T10:03:45.652Z,100264.22
2022-08-27T10:06:13.668Z,100256.44
2022-08-27T10:08:47.944Z,100263.28
2022-08-27T10:11:23.276Z,100267.50
2022-08-27T10:14:21.371Z,100268.69
2022-08-27T10:17:16.739Z,100267.03
2022-08-27T10:20:10.104Z,100261.38
2022-08-27T10:22:52.499Z,100260.94
2022-08-27T10:25:59.111Z,100258.81
2022-08-27T10:28:34.327Z,100251.53
2022-08-27T10:31:26.400Z,100253.38
2022-08-27T10:34:30.702Z,100260.28
2022-08-27T10:37:12.651Z,100260.94
2022-08-27T10:39:41.912Z,100260.75
2022-08-27T10:42:32.843Z,100260.50
2022-08-27T10:45:30.475Z,100266.78
2022-08-27T10:48:07.337Z,100264.28
2022-08-27T10:51:04.551Z,100268.03
2022-08-27T10:53:58.651Z,100268.81
2022-08-27T10:56:38.527Z,100258.00
2022-08-27T10:59:36.947Z,100255.03
2022-08-27T11:02:28.625Z,100262.00
2022-08-27T11:05:18.120Z,100262.19
2022-08-27T11:07:51.053Z,100255.16
2022-08-27T11:10:24.583Z,100259.44
2022-08-27T11:12:58.159Z,100251.34
2022-08-27T11:15:30.708Z,100258.84
2022-08-27T11:18:16.668Z,100253.38
2022-08-27T11:20:55.956Z,100258.25
2022-08-27T11:23:45.594Z,100260.59
2022-08-27T11:26:14.278Z,100257.69
2022-08-27T11:28:44.411Z,100249.22
2022-08-27T11:31:30.651Z,100256.13
2022-08-27T11:34:08.089Z,100252.63
2022-08-27T11:36:58.891Z,100255.44
2022-08-27T11:39:41.604Z,100247.34
2022-08-27T11:42:28.061Z,100255.53
2022-08-27T11:45:05.015Z,100261.88
2022-08-27T11:47:34.088Z,100260.91
2022-08-27T11:50:16.199Z,100258.47
2022-08-27T11:53:08.315Z,100261.97
2022-08-27T11:55:39.119Z,100254.63
2022-08-27T11:58:19.462Z,100259.88
2022-08-27T12:00:48.871Z,100257.47
2022-08-27T12:03:20.082Z,100264.25
2022-08-27T12:06:05.526Z,100258.25
2022-08-27T12:08:35.784Z,100256.81
2022-08-27T12:11:33.957Z,100249.50
2022-08-27T12:14:04.845Z,100260.13
2022-08-27T12:16:37.715Z,100260.91
2022-08-27T12:19:16.010Z,100256.19
2022-08-27T12:22:07.021Z,100256.88
2022-08-27T12:24:37.641Z,100249.75
2022-08-27T12:27:28.468Z,100244.59
2022-08-27T12:30:28.166Z,100252.56
2022-08-27T12:32:59.851Z,100245.91
2022-08-27T12:35:44.274Z,100252.09
2022-08-27T12:38:40.166Z,100251.97
2022-08-27T12:41:11.420Z,100248.94
2022-08-27T12:43:43.554Z,100248.75
2022-08-27T12:46:16.223Z,100254.22
2022-08-27T12:48:47.478Z,100255.75
2022-08-27T12:51:27.260Z,100260.28
2022-08-27T12:54:13.531Z,100253.91
2022-08-27T12:57:14.665Z,100249.78
2022-08-27T13:00:00.375Z,100252.63
2022-08-27T13:03:07.163Z,100253.31
2022-08-27T13:05:41.267Z,100248.72
2022-08-27T13:08:26.700Z,100257.56
2022-08-27T13:10:55.213Z,100256.19
2022-08-27T13:13:25.383Z,100252.41
2022-08-27T13:15:56.745Z,100258.31
2022-08-27T13:18:29.548Z,100258.28
2022-08-27T13:21:13.862Z,100250.38
2022-08-27T13:23:49.751Z,100252.56
2022-08-27T13:26:23.476Z,100254.94
2022-08-27T13:28:52.757Z,100247.66
2022-08-27T13:31:21.545Z,100246.72
2022-08-27T13:33:50.049Z,100252.34
2022-08-27T13:36:32.035Z,100251.28
2022-08-27T13:39:03.094Z,100251.28
2022-08-27T13:41:38.632Z,100257.47
2022-08-27T13:44:31.778Z,100256.84
2022-08-27T13:47:22.624Z,100255.59
2022-08-27T13:49:50.865Z,100257.75
2022-08-27T13:52:29.968Z,100247.72
2022-08-27T13:55:18.343Z,100249.56
2022-08-27T13:57:49.186Z,100253.53
2022-08-27T14:00:27.343Z,100247.13
2022-08-27T14:02:56.641Z,100256.69
2022-08-27T14:05:24.506Z,100259.66
2022-08-27T14:08:14.249Z,100258.13
2022-08-27T14:10:47.727Z,100248.94
2022-08-27T14:13:18.213Z,100249.78
2022-08-27T14:15:52.568Z,100245.19
2022-08-27T14:18:42.491Z,100250.03
2022-08-27T14:21:16.006Z,100251.34
2022-08-27T14:23:43.660Z,100251.19
2022-08-27T14:26:11.351Z,100246.75
2022-08-27T14:28:39.116Z,100263.31
2022-08-27T14:31:06.827Z,100266.31
2022-08-27T14:33:34.562Z,100261.72
2022-08-27T14:36:02.362Z,100260.50
2022-08-27T14:38:32.112Z,100261.78
2022-08-27T14:41:00.157Z,100261.59
2022-08-27T14:43:28.032Z,100262.63
2022-08-27T14:45:57.313Z,100257.63
2022-08-27T14:48:32.214Z,100254.47
2022-08-27T14:51:13.489Z,100256.78
2022-08-27T14:53:41.212Z,100251.97
2022-08-27T14:56:08.971Z,100253.03
2022-08-27T14:58:37.301Z,100253.88
2022-08-27T15:01:05.628Z,100247.59
2022-08-27T15:03:39.136Z,100245.09
2022-08-27T15:06:07.299Z,100241.75
2022-08-27T15:08:36.218Z,100239.69
2022-08-27T15:11:05.450Z,100241.34
2022-08-27T15:13:33.057Z,100238.41
2022-08-27T15:16:00.987Z,100236.13
2022-08-27T15:18:29.850Z,100232.38
2022-08-27T15:20:57.547Z,100225.06
2022-08-27T15:23:25.168Z,100226.94
2022-08-27T15:25:52.804Z,100231.34
2022-08-27T15:28:20.534Z,100220.06
2022-08-27T15:30:48.274Z,100225.72
2022-08-27T15:33:16.116Z,100225.91
2022-08-27T15:35:43.888Z,100224.47
2022-08-27T15:38:11.806Z,100228.44
2022-08-27T15:40:39.996Z,100229.28
2022-08-27T15:43:08.656Z,100219.66
2022-08-27T15:45:36.859Z,100224.06
2022-08-27T15:48:04.989Z,100221.97
2022-08-27T15:50:32.806Z,100220.94
2022-08-27T15:53:04.366Z,100227.19
2022-08-27T15:55:35.860Z,100224.06
2022-08-27T15:58:04.942Z,100223.84
2022-08-27T16:00:34.809Z,100238.25
2022-08-27T16:03:06.903Z,100234.50
2022-08-27T16:05:38.228Z,100234.28
2022-08-27T16:08:08.435Z,100230.72
2022-08-27T16:10:37.980Z,100222.19
2022-08-27T16:13:05.916Z,100216.09
2022-08-27T16:15:39.549Z,100221.78
2022-08-27T16:18:08.526Z,100213.81
2022-08-27T16:20:36.907Z,100207.09
2022-08-27T16:23:05.029Z,100211.09
2022-08-27T16:25:32.725Z,100217.13
2022-08-27T16:28:01.756Z,100217.34
2022-08-27T16:30:30.373Z,100206.69
2022-08-27T16:32:58.128Z,100208.16
2022-08-27T16:35:25.880Z,100205.88
2022-08-27T16:37:54.373Z,100209.41
2022-08-27T16:40:22.580Z,100217.13
2022-08-27T16:42:52.276Z,100221.09
2022-08-27T16:45:25.212Z,100226.31
2022-08-27T16:48:11.626Z,100237.16
2022-08-27T16:50:41.604Z,100239.47
2022-08-27T16:53:15.624Z,100229.47
2022-08-27T16:55:45.249Z,100214.22
2022-08-27T16:58:28.408Z,100215.47
2022-08-27T17:01:01.472Z,100225.91
2022-08-27T17:03:30.689Z,100240.94
2022-08-27T17:05:59.018Z,100240.53
2022-08-27T17:08:27.685Z,100252.56
2022-08-27T17:10:56.997Z,100242.50
2022-08-27T17:13:28.508Z,100250.47
2022-08-27T17:15:57.319Z,100266.75
2022-08-27T17:18:27.819Z,100274.44
2022-08-27T17:20:56.543Z,100274.69
2022-08-27T17:23:39.764Z,100273.63
2022-08-27T17:26:09.424Z,100281.38
2022-08-27T17:28:39.857Z,100279.66
2022-08-27T17:31:09.594Z,100283.44
2022-08-27T17:33:40.530Z,100270.50
2022-08-27T17:36:09.934Z,100278.84
2022-08-27T17:38:39.505Z,100279.66
2022-08-27T17:41:33.894Z,100283.63
2022-08-27T17:44:24.517Z,100273.81
2022-08-27T17:46:53.912Z,100290.47
2022-08-27T17:49:21.828Z,100285.47
2022-08-27T17:51:54.544Z,100276.28
2022-08-27T17:54:25.036Z,100279.81
2022-08-27T17:56:53.174Z,100277.94
2022-08-27T17:59:20.867Z,100284.22
2022-08-27T18:01:48.677Z,100269.19
2022-08-27T18:04:16.497Z,100261.25
2022-08-27T18:06:45.260Z,100257.91
2022-08-27T18:09:16.004Z,100259.38
2022-08-27T18:11:45.253Z,100263.28
2022-08-27T18:14:18.252Z,100276.84
2022-08-27T18:16:46.602Z,100279.56
2022-08-27T18:19:14.350Z,100278.03
2022-08-27T18:21:46.384Z,100285.75
2022-08-27T18:24:15.928Z,100281.72
2022-08-27T18:26:44.945Z,100285.00
2022-08-27T18:29:15.235Z,100283.34
2022-08-27T18:31:43.390Z,100288.97
2022-08-27T18:34:11.220Z,100283.97
2022-08-27T18:36:39.469Z,100288.56
2022-08-27T18:39:07.884Z,100289.81
2022-08-27T18:41:35.747Z,100300.22
2022-08-27T18:44:04.627Z,100311.09
2022-08-27T18:46:45.092Z,100307.53
2022-08-27T18:49:12.746Z,100304.38
2022-08-27T18:51:43.057Z,100309.78
2022-08-27T18:54:11.344Z,100310.16
2022-08-27T18:56:39.194Z,100309.91
2022-08-27T18:59:07.036Z,100310.47
2022-08-27T19:01:34.841Z,100302.09
2022-08-27T19:04:03.920Z,100303.81
2022-08-27T19:06:31.798Z,100306.31
2022-08-27T19:08:59.613Z,100303.34
2022-08-27T19:11:29.345Z,100313.56
2022-08-27T19:13:57.418Z,100314.13
2022-08-27T19:16:43.394Z,100316.56
2022-08-27T19:19:14.173Z,100311.94
2022-08-27T19:21:42.344Z,100314.38
2022-08-27T19:24:11.375Z,100314.75
2022-08-27T19:26:39.915Z,100318.91
2022-08-27T19:29:08.192Z,100312.81
2022-08-27T19:31:38.177Z,100318.66
2022-08-27T19:34:08.211Z,100315.09
2022-08-27T19:36:40.867Z,100313.44
2022-08-27T19:39:11.760Z,100309.03
2022-08-27T19:41:40.011Z,100306.34
2022-08-27T19:44:08.040Z,100308.84
2022-08-27T19:46:36.715Z,100315.94
2022-08-27T19:49:04.626Z,100310.91
2022-08-27T19:51:32.701Z,100309.88
2022-08-27T19:54:00.399Z,100305.50
2022-08-27T19:56:29.036Z,100315.47
2022-08-27T19:58:59.968Z,100308.56
2022-08-27T20:01:33.853Z,100313.56
2022-08-27T20:04:02.028Z,100311.41
2022-08-27T20:06:31.460Z,100318.72
2022-08-27T20:09:05.685Z,100317.22
2022-08-27T20:11:33.644Z,100313.66
2022-08-27T20:14:01.472Z,100318.44
2022-08-27T20:16:29.233Z,100319.47
2022-08-27T20:19:00.480Z,100319.47
2022-08-27T20:21:28.659Z,100312.38
2022-08-27T20:23:56.331Z,100314.44
2022-08-27T20:26:24.892Z,100315.66
2022-08-27T20:28:53.045Z,100323.34
2022-08-27T20:31:20.813Z,100309.13
2022-08-27T20:33:49.022Z,100307.25
2022-08-27T20:36:16.737Z,100306.00
2022-08-27T20:38:44.640Z,100310.56
2022-08-27T20:41:12.327Z,100313.00
2022-08-27T20:43:40.203Z,100310.50
2022-08-27T20:46:11.003Z,100305.44
2022-08-27T20:48:39.183Z,100303.78
2022-08-27T20:51:07.095Z,100300.78
2022-08-27T20:53:35.241Z,100299.47
2022-08-27T20:56:03.139Z,100294.44
2022-08-27T20:58:49.688Z,100290.44
2022-08-27T21:01:17.579Z,100301.19
2022-08-27T21:03:45.272Z,100283.00
2022-08-27T21:06:12.985Z,100301.75
2022-08-27T21:08:41.162Z,100289.16
2022-08-27T21:11:12.229Z,100297.75
2022-08-27T21:13:55.211Z,100297.31
2022-08-27T21:16:24.714Z,100298.06
2022-08-27T21:18:53.808Z,100294.03
2022-08-27T21:21:22.238Z,100287.91
2022-08-27T21:23:49.844Z,100292.03
2022-08-27T21:26:17.528Z,100282.03
2022-08-27T21:28:45.098Z,100281.53
2022-08-27T21:31:12.944Z,100285.06
2022-08-27T21:33:41.076Z,100283.09
2022-08-27T21:36:11.940Z,100284.53
2022-08-27T21:38:40.945Z,100286.00
2022-08-27T21:41:09.297Z,100282.47
2022-08-27T21:43:38.990Z,100283.84
2022-08-27T21:46:07.267Z,100273.78
2022-08-27T21:48:36.108Z,100294.56
2022-08-27T21:51:08.854Z,100287.03
2022-08-27T21:53:37.947Z,100291.13
2022-08-27T21:56:06.173Z,100292.34
2022-08-27T21:58:34.221Z,100296.13
2022-08-27T22:01:04.575Z,100285.59
2022-08-27T22:03:34.730Z,100279.03
2022-08-27T22:06:06.745Z,100281.28
2022-08-27T22:08:35.747Z,100277.75
2022-08-27T22:11:03.679Z,100274.03
2022-08-27T22:13:33.416Z,100271.50
2022-08-27T22:16:01.873Z,100280.25
2022-08-27T22:18:30.224Z,100280.06
2022-08-27T22:20:58.945Z,100278.09
2022-08-27T22:23:27.369Z,100277.63
2022-08-27T22:25:55.182Z,100278.47
2022-08-27T22:28:23.260Z,100283.03
2022-08-27T22:30:50.869Z,100282.22
2022-08-27T22:33:19.038Z,100289.81
2022-08-27T22:35:47.047Z,100287.19
2022-08-27T22:38:14.853Z,100289.75
2022-08-27T22:40:42.731Z,100287.19
2022-08-27T22:43:10.560Z,100289.97
2022-08-27T22:45:38.322Z,100289.00
2022-08-27T22:48:06.073Z,100292.03
2022-08-27T22:50:33.747Z,100287.19
2022-08-27T22:53:04.123Z,100280.06
2022-08-27T22:55:31.881Z,100273.56
2022-08-27T22:58:01.400Z,100281.34
2022-08-27T23:00:31.401Z,100281.94
2022-08-27T23:02:59.791Z,100283.47
2022-08-27T23:05:28.274Z,100279.47
2022-08-27T23:08:09.134Z,100283.56
2022-08-27T23:10:38.410Z,100281.22
2022-08-27T23:13:06.963Z,100285.56
2022-08-27T23:15:34.939Z,100278.34
2022-08-27T23:18:02.702Z,100283.72
2022-08-27T23:20:31.132Z,100279.75
2022-08-27T23:22:58.916Z,100277.50
2022-08-27T23:25:47.254Z,100276.97
2022-08-27T23:28:15.817Z,100279.31
2022-08-27T23:30:45.011Z,100278.66
2022-08-27T23:33:13.400Z,100279.94
2022-08-27T23:35:44.581Z,100276.59
2022-08-27T23:38:12.402Z,100279.94
2022-08-27T23:40:41.062Z,100277.63
2022-08-27T23:43:08.907Z,100275.63
2022-08-27T23:45:40.468Z,100273.97
2022-08-27T23:48:08.726Z,100277.31
2022-08-27T23:50:37.276Z,100271.44
2022-08-27T23:53:06.465Z,100272.47
2022-08-27T23:55:34.771Z,100268.38
2022-08-27T23:58:02.895Z,100269.41
